Aitkin, Minnesota
Current Conditions -  °F | °C
As of 4:36 AM on Friday 21 Nov 2014 (Local Time) from KAIT Reporting Station
Clear Clear  
Wind Chill:   Ceiling: Unl
Heat Index:   Visibility: 10mi
Dew Point:   Wind: 5mph
Humidity: 79%   Direction: 160°SSE
Pressure: 30.1"   Gusts: NA
Location:  46.53°N, 93.71°W
Report Text: KAIT 211036Z AUTO 16004KT 10SM CLR M13/M16 A3010 RMK AO2
Loading
Personal Weather Stations






























Interactive Weather Map New forecast layout! Learn more

10-Day Weather Forecast

Advertisements
Track Severe Weather on mobile